»·PEaware :: UAL1973 KSFO-KSAN

UAL1973 :: KSFO-KSAN

FLIGHT INFORMATION

Flight Status: Arrived
Operator:
United Airlines
More flights by this operator :: More flights under this callsign
Pilot: Alfredo R. (12181)
Aircraft: BOEING 737-800
(B738)
More flights by this aircraft type
Origin: KSFO San Francisco Intl
United States
Destination: KSAN San Diego Intl-Lindbergh
United States
More flights between these airports :: More routes between these airports
Route: OFFSH1 MCKEY LAX COMIX1
File this flight plan on PilotEdge
Remarks:
Altitude:
(Current/Filed)
35,000ft
Speed:
(Current/Filed)
425kts
Departed: 16-May-18 08:02 PM
Arrived: 16-May-18 09:16 PM
Distance/Time
Traveled:
387nm/1:14
Distance/Time
To Go:
Arrived

Flight Plot

Page will automatically refresh every two minutes.

Flight plan parsing failed; only flown route is shown


Map Options




Map Legend


Flown Route
Filed Route
Departure Airport
Arrival Airport
Navaid (VOR, NDB)
Fix

Horizontal Profiles

Position Reports

Time Latitude Longitude Heading Altitude Ground
Speed
16-May-18 19:37 37.619186 -122.383517 291 30ft 0kts
16-May-18 19:38 37.619186 -122.383517 291 30ft 0kts
16-May-18 19:39 37.619186 -122.383517 291 30ft 0kts
16-May-18 19:40 37.619186 -122.383517 291 30ft 0kts
16-May-18 19:41 37.619186 -122.383517 291 30ft 0kts
16-May-18 19:42 37.619186 -122.383517 291 30ft 0kts
16-May-18 19:43 37.619186 -122.383517 291 30ft 0kts
16-May-18 19:44 37.619186 -122.383517 291 30ft 0kts
16-May-18 19:45 37.619186 -122.383517 291 31ft 0kts
16-May-18 19:46 37.619040 -122.383034 307 31ft 1kts
16-May-18 19:47 37.618537 -122.383196 29 31ft 2kts
16-May-18 19:48 37.619179 -122.382746 29 31ft 1kts
16-May-18 19:49 37.619189 -122.382738 29 30ft 0kts
16-May-18 19:50 37.619189 -122.382738 29 30ft 0kts
16-May-18 19:51 37.619189 -122.382738 29 30ft 0kts
16-May-18 19:52 37.619189 -122.382738 29 30ft 0kts
16-May-18 19:53 37.619189 -122.382738 29 30ft 0kts
16-May-18 19:54 37.619209 -122.382724 29 30ft 0kts
16-May-18 19:55 37.619643 -122.382121 94 31ft 1kts
16-May-18 19:56 37.619272 -122.381075 117 30ft 6kts
16-May-18 19:57 37.617183 -122.379443 189 29ft 13kts
16-May-18 19:58 37.613438 -122.381750 209 31ft 16kts
16-May-18 19:59 37.609772 -122.384214 180 30ft 9kts
16-May-18 20:00 37.609104 -122.383465 123 30ft 0kts
16-May-18 20:01 37.608950 -122.383151 119 30ft 7kts
16-May-18 20:02 37.617551 -122.376532 25 23ft 113kts
16-May-18 20:03 37.661283 -122.352826 358 1741ft 186kts
16-May-18 20:04 37.700381 -122.386973 263 4240ft 213kts
16-May-18 20:05 37.649187 -122.408301 160 6666ft 258kts
16-May-18 20:06 37.576229 -122.397163 193 8828ft 294kts
16-May-18 20:07 37.494023 -122.420474 194 11017ft 328kts
16-May-18 20:08 37.403418 -122.446461 195 13756ft 343kts
16-May-18 20:09 37.309477 -122.473455 195 16334ft 355kts
16-May-18 20:10 37.212510 -122.501263 195 18593ft 367kts
16-May-18 20:11 37.112825 -122.529811 196 20764ft 375kts
16-May-18 20:12 37.010743 -122.559008 196 22627ft 386kts
16-May-18 20:13 36.903822 -122.560349 169 24304ft 403kts
16-May-18 20:14 36.793676 -122.530049 170 25866ft 412kts
16-May-18 20:15 36.680808 -122.500116 173 27430ft 417kts
16-May-18 20:16 36.566126 -122.470183 173 28764ft 424kts
16-May-18 20:17 36.450703 -122.439561 168 30148ft 430kts
16-May-18 20:18 36.358843 -122.343941 133 31495ft 447kts
16-May-18 20:19 36.279513 -122.226212 133 32771ft 444kts
16-May-18 20:20 36.200278 -122.110204 134 33896ft 441kts
16-May-18 20:21 36.121233 -121.995280 134 34914ft 438kts
16-May-18 20:22 36.040697 -121.878873 134 35168ft 464kts
16-May-18 20:23 35.954998 -121.755427 134 35154ft 479kts
16-May-18 20:24 35.868474 -121.631231 134 35159ft 479kts
16-May-18 20:25 35.781821 -121.507367 134 35084ft 479kts
16-May-18 20:26 35.696487 -121.385801 135 35094ft 482kts
16-May-18 20:27 35.609564 -121.262443 135 35079ft 481kts
16-May-18 20:28 35.521944 -121.138491 136 35081ft 481kts
16-May-18 20:29 35.439252 -121.010836 129 35081ft 486kts
16-May-18 20:30 35.365560 -120.880695 129 35121ft 485kts
16-May-18 20:31 35.288831 -120.749556 130 35117ft 485kts
16-May-18 20:32 35.211879 -120.619705 131 35121ft 485kts
16-May-18 20:33 35.135040 -120.490004 131 35123ft 485kts
16-May-18 20:34 35.057850 -120.359456 131 35125ft 485kts
16-May-18 20:35 34.979908 -120.227248 131 35111ft 485kts
16-May-18 20:36 34.901897 -120.094860 131 35115ft 485kts
16-May-18 20:37 34.824444 -119.963100 131 35103ft 485kts
16-May-18 20:38 34.746929 -119.831106 131 35108ft 490kts
16-May-18 20:39 34.668873 -119.697786 132 35045ft 494kts
16-May-18 20:40 34.590815 -119.564296 132 35013ft 488kts
16-May-18 20:41 34.514019 -119.432749 132 35015ft 488kts
16-May-18 20:42 34.436654 -119.299930 133 35029ft 486kts
16-May-18 20:43 34.359763 -119.167633 133 35035ft 488kts
16-May-18 20:44 34.283301 -119.036007 133 35046ft 493kts
16-May-18 20:45 34.204932 -118.900800 132 35045ft 498kts
16-May-18 20:46 34.126967 -118.766044 132 35053ft 498kts
16-May-18 20:47 34.053358 -118.638360 133 35022ft 470kts
16-May-18 20:48 33.982317 -118.515314 133 34266ft 462kts
16-May-18 20:49 33.908402 -118.394287 142 32567ft 448kts
16-May-18 20:50 33.825657 -118.289734 142 30600ft 451kts
16-May-18 20:51 33.740835 -118.180501 141 28832ft 454kts
16-May-18 20:52 33.657768 -118.071941 140 27102ft 457kts
16-May-18 20:53 33.574621 -117.963181 140 25299ft 434kts
16-May-18 20:54 33.492500 -117.863577 143 23328ft 414kts
16-May-18 20:55 33.412218 -117.769547 141 21351ft 403kts
16-May-18 20:56 33.335671 -117.676554 140 19468ft 390kts
16-May-18 20:57 33.261375 -117.586473 139 17699ft 379kts
16-May-18 20:58 33.178718 -117.515358 150 15919ft 362kts
16-May-18 20:59 33.097627 -117.448685 148 14147ft 353kts
16-May-18 21:00 33.023116 -117.386759 148 12282ft 306kts
16-May-18 21:01 32.958895 -117.333167 148 10792ft 282kts
16-May-18 21:02 32.896263 -117.281068 148 9625ft 283kts
16-May-18 21:03 32.833757 -117.229241 148 8437ft 267kts
16-May-18 21:04 32.799363 -117.160314 106 7567ft 250kts
16-May-18 21:05 32.782423 -117.083888 106 6696ft 245kts
16-May-18 21:06 32.760650 -117.011908 107 5853ft 242kts
16-May-18 21:07 32.743779 -116.939719 106 5036ft 234kts
16-May-18 21:08 32.717842 -116.875397 162 4158ft 220kts
16-May-18 21:09 32.685128 -116.910423 269 3318ft 181kts
16-May-18 21:10 32.685791 -116.967147 271 2468ft 168kts
16-May-18 21:11 32.692535 -117.020610 285 2010ft 161kts
16-May-18 21:12 32.704201 -117.068895 285 1934ft 153kts
16-May-18 21:13 32.715084 -117.113554 286 1947ft 144kts
16-May-18 21:14 32.726296 -117.159479 285 516ft 137kts
16-May-18 21:15 32.736295 -117.201146 284 25ft 91kts
16-May-18 21:16 32.735491 -117.204856 65 25ft 3kts

Navigation Log

Ident Type
Flight plan parsing failed, navigation log unavailable